sensor_id;sensor_type;location;lat;lon;timestamp;P1;durP1;ratioP1;P2;durP2;ratioP2
50647;SDS011;70221;52.002;6.034;2023-05-19T00:00:51;3.97;;;2.00;;
50647;SDS011;70221;52.002;6.034;2023-05-19T00:03:17;4.30;;;2.00;;
50647;SDS011;70221;52.002;6.034;2023-05-19T00:05:45;2.95;;;1.80;;
50647;SDS011;70221;52.002;6.034;2023-05-19T00:08:12;3.55;;;1.85;;
50647;SDS011;70221;52.002;6.034;2023-05-19T00:10:39;3.75;;;2.00;;
50647;SDS011;70221;52.002;6.034;2023-05-19T00:13:04;4.17;;;1.90;;
50647;SDS011;70221;52.002;6.034;2023-05-19T00:15:29;3.90;;;1.97;;
50647;SDS011;70221;52.002;6.034;2023-05-19T00:17:54;3.78;;;1.80;;
50647;SDS011;70221;52.002;6.034;2023-05-19T00:20:20;4.10;;;2.00;;
50647;SDS011;70221;52.002;6.034;2023-05-19T00:22:45;4.20;;;2.00;;
50647;SDS011;70221;52.002;6.034;2023-05-19T00:25:11;4.17;;;1.90;;
50647;SDS011;70221;52.002;6.034;2023-05-19T00:27:36;3.40;;;1.80;;
50647;SDS011;70221;52.002;6.034;2023-05-19T00:30:01;3.57;;;1.80;;
50647;SDS011;70221;52.002;6.034;2023-05-19T00:32:26;3.83;;;1.70;;
50647;SDS011;70221;52.002;6.034;2023-05-19T00:34:51;3.50;;;1.70;;
50647;SDS011;70221;52.002;6.034;2023-05-19T00:37:16;3.90;;;1.93;;
50647;SDS011;70221;52.002;6.034;2023-05-19T00:39:42;3.87;;;1.80;;
50647;SDS011;70221;52.002;6.034;2023-05-19T00:42:07;3.40;;;1.87;;
50647;SDS011;70221;52.002;6.034;2023-05-19T00:44:32;3.57;;;1.83;;
50647;SDS011;70221;52.002;6.034;2023-05-19T00:46:58;3.07;;;1.73;;
50647;SDS011;70221;52.002;6.034;2023-05-19T00:49:23;3.93;;;1.90;;
50647;SDS011;70221;52.002;6.034;2023-05-19T00:51:48;3.73;;;1.80;;
50647;SDS011;70221;52.002;6.034;2023-05-19T00:54:14;3.27;;;1.70;;
50647;SDS011;70221;52.002;6.034;2023-05-19T00:56:39;4.25;;;1.90;;
50647;SDS011;70221;52.002;6.034;2023-05-19T00:59:05;4.05;;;1.80;;
50647;SDS011;70221;52.002;6.034;2023-05-19T01:01:30;3.90;;;2.00;;
50647;SDS011;70221;52.002;6.034;2023-05-19T01:03:56;2.90;;;1.50;;
50647;SDS011;70221;52.002;6.034;2023-05-19T01:06:22;3.17;;;1.80;;
50647;SDS011;70221;52.002;6.034;2023-05-19T01:08:49;3.90;;;1.90;;
50647;SDS011;70221;52.002;6.034;2023-05-19T01:11:15;2.97;;;1.50;;
50647;SDS011;70221;52.002;6.034;2023-05-19T01:13:40;3.20;;;1.70;;
50647;SDS011;70221;52.002;6.034;2023-05-19T01:31:36;3.15;;;1.73;;
50647;SDS011;70221;52.002;6.034;2023-05-19T01:34:01;3.65;;;1.70;;
50647;SDS011;70221;52.002;6.034;2023-05-19T01:36:28;3.05;;;1.70;;
50647;SDS011;70221;52.002;6.034;2023-05-19T01:38:56;3.13;;;1.67;;
50647;SDS011;70221;52.002;6.034;2023-05-19T01:41:22;4.20;;;1.80;;
50647;SDS011;70221;52.002;6.034;2023-05-19T01:43:48;3.92;;;2.05;;
50647;SDS011;70221;52.002;6.034;2023-05-19T01:46:14;3.38;;;1.60;;
50647;SDS011;70221;52.002;6.034;2023-05-19T01:48:41;3.95;;;1.92;;
50647;SDS011;70221;52.002;6.034;2023-05-19T01:51:06;3.03;;;1.65;;
50647;SDS011;70221;52.002;6.034;2023-05-19T01:53:32;3.97;;;1.60;;
50647;SDS011;70221;52.002;6.034;2023-05-19T01:55:57;2.47;;;1.53;;
50647;SDS011;70221;52.002;6.034;2023-05-19T01:58:30;2.87;;;1.60;;
50647;SDS011;70221;52.002;6.034;2023-05-19T02:01:10;3.35;;;1.60;;
50647;SDS011;70221;52.002;6.034;2023-05-19T02:06:34;3.72;;;1.70;;
50647;SDS011;70221;52.002;6.034;2023-05-19T02:09:08;3.40;;;1.77;;
50647;SDS011;70221;52.002;6.034;2023-05-19T02:11:41;3.53;;;1.67;;
50647;SDS011;70221;52.002;6.034;2023-05-19T02:14:08;3.10;;;1.48;;
50647;SDS011;70221;52.002;6.034;2023-05-19T02:16:36;2.95;;;1.70;;
50647;SDS011;70221;52.002;6.034;2023-05-19T02:19:02;3.03;;;1.60;;
50647;SDS011;70221;52.002;6.034;2023-05-19T02:21:27;3.33;;;1.70;;
50647;SDS011;70221;52.002;6.034;2023-05-19T02:23:52;3.17;;;1.60;;
50647;SDS011;70221;52.002;6.034;2023-05-19T02:26:18;3.07;;;1.63;;
50647;SDS011;70221;52.002;6.034;2023-05-19T02:28:43;4.00;;;1.70;;
50647;SDS011;70221;52.002;6.034;2023-05-19T02:31:08;3.77;;;1.63;;
50647;SDS011;70221;52.002;6.034;2023-05-19T02:33:34;3.30;;;1.50;;
50647;SDS011;70221;52.002;6.034;2023-05-19T02:36:00;3.65;;;1.75;;
50647;SDS011;70221;52.002;6.034;2023-05-19T02:38:25;2.63;;;1.50;;
50647;SDS011;70221;52.002;6.034;2023-05-19T02:40:51;4.03;;;1.70;;
50647;SDS011;70221;52.002;6.034;2023-05-19T02:43:16;3.67;;;1.70;;
50647;SDS011;70221;52.002;6.034;2023-05-19T02:45:42;2.90;;;1.50;;
50647;SDS011;70221;52.002;6.034;2023-05-19T02:48:07;4.17;;;1.63;;
50647;SDS011;70221;52.002;6.034;2023-05-19T02:50:32;4.17;;;1.70;;
50647;SDS011;70221;52.002;6.034;2023-05-19T02:52:57;2.65;;;1.60;;
50647;SDS011;70221;52.002;6.034;2023-05-19T02:55:22;2.70;;;1.67;;
50647;SDS011;70221;52.002;6.034;2023-05-19T02:57:48;3.30;;;1.60;;
50647;SDS011;70221;52.002;6.034;2023-05-19T03:00:13;3.63;;;1.60;;
50647;SDS011;70221;52.002;6.034;2023-05-19T03:02:39;3.85;;;1.90;;
50647;SDS011;70221;52.002;6.034;2023-05-19T03:05:05;3.43;;;1.70;;
50647;SDS011;70221;52.002;6.034;2023-05-19T03:07:31;4.30;;;1.70;;
50647;SDS011;70221;52.002;6.034;2023-05-19T03:09:57;3.15;;;1.60;;
50647;SDS011;70221;52.002;6.034;2023-05-19T03:12:22;3.37;;;1.70;;
50647;SDS011;70221;52.002;6.034;2023-05-19T03:14:48;3.73;;;1.63;;
50647;SDS011;70221;52.002;6.034;2023-05-19T03:17:13;3.33;;;1.60;;
50647;SDS011;70221;52.002;6.034;2023-05-19T03:19:38;3.67;;;1.60;;
50647;SDS011;70221;52.002;6.034;2023-05-19T03:22:04;3.10;;;1.60;;
50647;SDS011;70221;52.002;6.034;2023-05-19T03:24:29;3.17;;;1.60;;
50647;SDS011;70221;52.002;6.034;2023-05-19T03:26:54;3.50;;;1.80;;
50647;SDS011;70221;52.002;6.034;2023-05-19T03:29:19;2.90;;;1.60;;
50647;SDS011;70221;52.002;6.034;2023-05-19T03:31:45;3.35;;;1.70;;
50647;SDS011;70221;52.002;6.034;2023-05-19T03:34:10;3.57;;;1.80;;
50647;SDS011;70221;52.002;6.034;2023-05-19T03:36:35;3.97;;;1.93;;
50647;SDS011;70221;52.002;6.034;2023-05-19T03:39:04;2.80;;;1.50;;
50647;SDS011;70221;52.002;6.034;2023-05-19T03:41:30;4.03;;;1.63;;
50647;SDS011;70221;52.002;6.034;2023-05-19T03:43:55;3.37;;;1.70;;
50647;SDS011;70221;52.002;6.034;2023-05-19T03:46:20;2.90;;;1.60;;
50647;SDS011;70221;52.002;6.034;2023-05-19T03:48:45;3.73;;;1.80;;
50647;SDS011;70221;52.002;6.034;2023-05-19T03:51:10;3.70;;;1.80;;
50647;SDS011;70221;52.002;6.034;2023-05-19T03:53:36;3.23;;;1.60;;
50647;SDS011;70221;52.002;6.034;2023-05-19T03:56:01;3.33;;;1.70;;
50647;SDS011;70221;52.002;6.034;2023-05-19T03:58:27;3.10;;;1.70;;
50647;SDS011;70221;52.002;6.034;2023-05-19T04:00:54;3.53;;;1.80;;
50647;SDS011;70221;52.002;6.034;2023-05-19T04:03:19;3.67;;;1.60;;
50647;SDS011;70221;52.002;6.034;2023-05-19T04:05:44;3.77;;;1.70;;
50647;SDS011;70221;52.002;6.034;2023-05-19T04:08:10;3.17;;;1.70;;
50647;SDS011;70221;52.002;6.034;2023-05-19T04:10:35;3.83;;;1.63;;
50647;SDS011;70221;52.002;6.034;2023-05-19T04:13:00;3.23;;;1.67;;
50647;SDS011;70221;52.002;6.034;2023-05-19T04:15:25;3.77;;;1.87;;
50647;SDS011;70221;52.002;6.034;2023-05-19T04:17:50;3.77;;;1.70;;
50647;SDS011;70221;52.002;6.034;2023-05-19T04:20:15;3.97;;;1.80;;
50647;SDS011;70221;52.002;6.034;2023-05-19T04:22:41;4.20;;;1.90;;
50647;SDS011;70221;52.002;6.034;2023-05-19T04:25:06;3.33;;;1.70;;
50647;SDS011;70221;52.002;6.034;2023-05-19T04:27:31;4.05;;;1.90;;
50647;SDS011;70221;52.002;6.034;2023-05-19T04:30:00;3.90;;;1.60;;
50647;SDS011;70221;52.002;6.034;2023-05-19T04:32:25;3.47;;;1.63;;
50647;SDS011;70221;52.002;6.034;2023-05-19T04:34:50;4.23;;;1.60;;
50647;SDS011;70221;52.002;6.034;2023-05-19T04:37:16;3.00;;;1.53;;
50647;SDS011;70221;52.002;6.034;2023-05-19T04:39:41;3.40;;;1.40;;
50647;SDS011;70221;52.002;6.034;2023-05-19T04:42:08;3.70;;;1.50;;
50647;SDS011;70221;52.002;6.034;2023-05-19T04:44:34;3.03;;;1.60;;
50647;SDS011;70221;52.002;6.034;2023-05-19T04:47:00;3.40;;;1.70;;
50647;SDS011;70221;52.002;6.034;2023-05-19T04:49:25;3.07;;;1.60;;
50647;SDS011;70221;52.002;6.034;2023-05-19T04:51:50;3.23;;;1.60;;
50647;SDS011;70221;52.002;6.034;2023-05-19T04:54:16;2.15;;;1.23;;
50647;SDS011;70221;52.002;6.034;2023-05-19T04:56:41;3.37;;;1.57;;
50647;SDS011;70221;52.002;6.034;2023-05-19T04:59:07;3.20;;;1.35;;
50647;SDS011;70221;52.002;6.034;2023-05-19T05:01:33;2.85;;;1.40;;
50647;SDS011;70221;52.002;6.034;2023-05-19T05:03:59;3.00;;;1.50;;
50647;SDS011;70221;52.002;6.034;2023-05-19T05:06:26;2.70;;;1.60;;
50647;SDS011;70221;52.002;6.034;2023-05-19T05:08:52;11.40;;;10.18;;
50647;SDS011;70221;52.002;6.034;2023-05-19T05:11:17;6.20;;;4.30;;
50647;SDS011;70221;52.002;6.034;2023-05-19T05:13:43;5.83;;;3.80;;
50647;SDS011;70221;52.002;6.034;2023-05-19T05:16:08;5.03;;;2.87;;
50647;SDS011;70221;52.002;6.034;2023-05-19T05:18:34;5.13;;;2.83;;
50647;SDS011;70221;52.002;6.034;2023-05-19T05:21:00;4.63;;;2.40;;
50647;SDS011;70221;52.002;6.034;2023-05-19T05:23:25;5.10;;;2.80;;
50647;SDS011;70221;52.002;6.034;2023-05-19T05:25:51;4.45;;;2.80;;
50647;SDS011;70221;52.002;6.034;2023-05-19T05:28:16;5.07;;;3.00;;
50647;SDS011;70221;52.002;6.034;2023-05-19T05:30:41;4.60;;;2.80;;
50647;SDS011;70221;52.002;6.034;2023-05-19T05:33:07;5.43;;;3.20;;
50647;SDS011;70221;52.002;6.034;2023-05-19T05:35:32;5.47;;;3.67;;
50647;SDS011;70221;52.002;6.034;2023-05-19T05:37:57;5.90;;;3.40;;
50647;SDS011;70221;52.002;6.034;2023-05-19T05:40:23;5.35;;;3.60;;
50647;SDS011;70221;52.002;6.034;2023-05-19T05:42:48;6.20;;;4.10;;
50647;SDS011;70221;52.002;6.034;2023-05-19T05:45:13;6.03;;;3.70;;
50647;SDS011;70221;52.002;6.034;2023-05-19T05:47:39;6.10;;;4.55;;
50647;SDS011;70221;52.002;6.034;2023-05-19T05:50:05;6.33;;;4.53;;
50647;SDS011;70221;52.002;6.034;2023-05-19T05:52:31;7.07;;;5.15;;
50647;SDS011;70221;52.002;6.034;2023-05-19T05:54:56;6.50;;;4.80;;
50647;SDS011;70221;52.002;6.034;2023-05-19T05:57:21;7.73;;;6.90;;
50647;SDS011;70221;52.002;6.034;2023-05-19T05:59:47;7.43;;;5.33;;
50647;SDS011;70221;52.002;6.034;2023-05-19T06:02:12;8.45;;;7.63;;
50647;SDS011;70221;52.002;6.034;2023-05-19T06:04:37;9.87;;;8.97;;
50647;SDS011;70221;52.002;6.034;2023-05-19T06:07:02;9.13;;;8.23;;
50647;SDS011;70221;52.002;6.034;2023-05-19T06:09:28;9.10;;;8.10;;
50647;SDS011;70221;52.002;6.034;2023-05-19T06:11:54;9.30;;;8.43;;
50647;SDS011;70221;52.002;6.034;2023-05-19T06:14:19;8.90;;;7.90;;
50647;SDS011;70221;52.002;6.034;2023-05-19T06:16:44;8.30;;;7.50;;
50647;SDS011;70221;52.002;6.034;2023-05-19T06:19:11;8.80;;;7.90;;
50647;SDS011;70221;52.002;6.034;2023-05-19T06:21:37;8.30;;;7.50;;
50647;SDS011;70221;52.002;6.034;2023-05-19T06:24:02;8.40;;;7.13;;
50647;SDS011;70221;52.002;6.034;2023-05-19T06:26:27;7.93;;;7.13;;
50647;SDS011;70221;52.002;6.034;2023-05-19T06:28:52;8.30;;;7.17;;
50647;SDS011;70221;52.002;6.034;2023-05-19T06:31:17;7.43;;;6.70;;
50647;SDS011;70221;52.002;6.034;2023-05-19T06:33:42;7.67;;;6.87;;
50647;SDS011;70221;52.002;6.034;2023-05-19T06:36:08;7.70;;;6.63;;
50647;SDS011;70221;52.002;6.034;2023-05-19T06:38:34;7.57;;;6.40;;
50647;SDS011;70221;52.002;6.034;2023-05-19T06:40:59;7.23;;;6.53;;
50647;SDS011;70221;52.002;6.034;2023-05-19T06:43:24;7.60;;;6.53;;
50647;SDS011;70221;52.002;6.034;2023-05-19T06:45:49;7.57;;;6.75;;
50647;SDS011;70221;52.002;6.034;2023-05-19T06:48:15;7.00;;;6.30;;
50647;SDS011;70221;52.002;6.034;2023-05-19T06:50:40;6.97;;;6.27;;
50647;SDS011;70221;52.002;6.034;2023-05-19T06:53:05;7.03;;;6.33;;
50647;SDS011;70221;52.002;6.034;2023-05-19T06:55:30;7.10;;;6.20;;
50647;SDS011;70221;52.002;6.034;2023-05-19T06:57:56;7.07;;;6.20;;
50647;SDS011;70221;52.002;6.034;2023-05-19T07:00:21;6.83;;;6.07;;
50647;SDS011;70221;52.002;6.034;2023-05-19T07:02:46;6.80;;;6.00;;
50647;SDS011;70221;52.002;6.034;2023-05-19T07:05:11;8.30;;;5.90;;
50647;SDS011;70221;52.002;6.034;2023-05-19T07:07:36;8.27;;;5.70;;
50647;SDS011;70221;52.002;6.034;2023-05-19T07:10:02;6.57;;;5.10;;
50647;SDS011;70221;52.002;6.034;2023-05-19T07:12:27;7.27;;;5.10;;
50647;SDS011;70221;52.002;6.034;2023-05-19T07:14:52;8.33;;;4.90;;
50647;SDS011;70221;52.002;6.034;2023-05-19T07:17:17;9.60;;;4.60;;
50647;SDS011;70221;52.002;6.034;2023-05-19T07:19:42;9.47;;;4.43;;
50647;SDS011;70221;52.002;6.034;2023-05-19T07:22:08;9.75;;;4.53;;
50647;SDS011;70221;52.002;6.034;2023-05-19T07:24:33;10.47;;;4.60;;
50647;SDS011;70221;52.002;6.034;2023-05-19T07:26:58;9.07;;;4.50;;
50647;SDS011;70221;52.002;6.034;2023-05-19T07:29:23;9.43;;;4.13;;
50647;SDS011;70221;52.002;6.034;2023-05-19T07:31:48;8.70;;;4.20;;
50647;SDS011;70221;52.002;6.034;2023-05-19T07:34:18;9.50;;;3.75;;
50647;SDS011;70221;52.002;6.034;2023-05-19T07:36:43;12.43;;;4.20;;
50647;SDS011;70221;52.002;6.034;2023-05-19T07:39:08;10.87;;;3.87;;
50647;SDS011;70221;52.002;6.034;2023-05-19T07:41:34;7.47;;;3.57;;
50647;SDS011;70221;52.002;6.034;2023-05-19T07:43:59;8.57;;;3.80;;
50647;SDS011;70221;52.002;6.034;2023-05-19T07:46:24;8.87;;;4.30;;
50647;SDS011;70221;52.002;6.034;2023-05-19T07:48:49;8.40;;;3.50;;
50647;SDS011;70221;52.002;6.034;2023-05-19T07:51:15;10.20;;;4.00;;
50647;SDS011;70221;52.002;6.034;2023-05-19T07:53:40;9.02;;;3.30;;
50647;SDS011;70221;52.002;6.034;2023-05-19T07:56:05;8.47;;;3.00;;
50647;SDS011;70221;52.002;6.034;2023-05-19T07:58:30;9.80;;;3.60;;
50647;SDS011;70221;52.002;6.034;2023-05-19T08:00:56;7.53;;;3.30;;
50647;SDS011;70221;52.002;6.034;2023-05-19T08:03:21;7.75;;;2.75;;
50647;SDS011;70221;52.002;6.034;2023-05-19T08:05:47;11.02;;;3.30;;
50647;SDS011;70221;52.002;6.034;2023-05-19T08:08:12;7.17;;;3.20;;
50647;SDS011;70221;52.002;6.034;2023-05-19T08:10:40;10.07;;;3.10;;
50647;SDS011;70221;52.002;6.034;2023-05-19T08:13:05;9.53;;;3.53;;
50647;SDS011;70221;52.002;6.034;2023-05-19T08:15:31;8.60;;;3.03;;
50647;SDS011;70221;52.002;6.034;2023-05-19T08:17:56;7.30;;;2.60;;
50647;SDS011;70221;52.002;6.034;2023-05-19T08:20:21;9.43;;;3.10;;
50647;SDS011;70221;52.002;6.034;2023-05-19T08:22:48;7.28;;;2.83;;
50647;SDS011;70221;52.002;6.034;2023-05-19T08:25:13;11.47;;;3.23;;
50647;SDS011;70221;52.002;6.034;2023-05-19T08:27:38;9.00;;;3.10;;
50647;SDS011;70221;52.002;6.034;2023-05-19T08:30:04;7.33;;;2.80;;
50647;SDS011;70221;52.002;6.034;2023-05-19T08:32:29;9.60;;;3.00;;
50647;SDS011;70221;52.002;6.034;2023-05-19T08:34:55;11.23;;;3.10;;
50647;SDS011;70221;52.002;6.034;2023-05-19T08:37:20;9.45;;;2.55;;
50647;SDS011;70221;52.002;6.034;2023-05-19T08:39:45;10.50;;;2.60;;
50647;SDS011;70221;52.002;6.034;2023-05-19T08:42:10;8.67;;;2.67;;
50647;SDS011;70221;52.002;6.034;2023-05-19T08:44:36;7.23;;;2.80;;
50647;SDS011;70221;52.002;6.034;2023-05-19T08:47:02;8.93;;;2.55;;
50647;SDS011;70221;52.002;6.034;2023-05-19T08:49:30;8.10;;;2.60;;
50647;SDS011;70221;52.002;6.034;2023-05-19T08:52:01;8.15;;;2.60;;
50647;SDS011;70221;52.002;6.034;2023-05-19T08:54:32;7.68;;;2.40;;
50647;SDS011;70221;52.002;6.034;2023-05-19T08:57:00;7.68;;;2.58;;
50647;SDS011;70221;52.002;6.034;2023-05-19T08:59:26;8.67;;;2.37;;
50647;SDS011;70221;52.002;6.034;2023-05-19T09:01:51;8.70;;;2.40;;
50647;SDS011;70221;52.002;6.034;2023-05-19T09:04:18;7.38;;;2.28;;
50647;SDS011;70221;52.002;6.034;2023-05-19T09:06:44;10.90;;;2.70;;
50647;SDS011;70221;52.002;6.034;2023-05-19T09:09:09;8.77;;;2.27;;
50647;SDS011;70221;52.002;6.034;2023-05-19T09:11:35;9.50;;;2.55;;
50647;SDS011;70221;52.002;6.034;2023-05-19T09:14:01;8.17;;;2.10;;
50647;SDS011;70221;52.002;6.034;2023-05-19T09:16:26;8.03;;;2.10;;
50647;SDS011;70221;52.002;6.034;2023-05-19T09:18:56;8.40;;;2.28;;
50647;SDS011;70221;52.002;6.034;2023-05-19T09:21:30;9.73;;;2.28;;
50647;SDS011;70221;52.002;6.034;2023-05-19T09:23:56;6.60;;;1.90;;
50647;SDS011;70221;52.002;6.034;2023-05-19T09:26:22;6.50;;;2.08;;
50647;SDS011;70221;52.002;6.034;2023-05-19T09:28:48;7.90;;;2.10;;
50647;SDS011;70221;52.002;6.034;2023-05-19T09:31:13;5.97;;;1.70;;
50647;SDS011;70221;52.002;6.034;2023-05-19T09:33:40;6.87;;;1.80;;
50647;SDS011;70221;52.002;6.034;2023-05-19T09:36:08;8.60;;;1.95;;
50647;SDS011;70221;52.002;6.034;2023-05-19T09:38:35;9.48;;;2.05;;
50647;SDS011;70221;52.002;6.034;2023-05-19T09:41:00;6.83;;;1.93;;
50647;SDS011;70221;52.002;6.034;2023-05-19T09:43:26;8.97;;;2.17;;
50647;SDS011;70221;52.002;6.034;2023-05-19T09:46:03;5.68;;;2.00;;
50647;SDS011;70221;52.002;6.034;2023-05-19T09:48:30;10.77;;;2.33;;
50647;SDS011;70221;52.002;6.034;2023-05-19T09:50:55;7.15;;;1.90;;
50647;SDS011;70221;52.002;6.034;2023-05-19T09:53:23;8.40;;;1.90;;
50647;SDS011;70221;52.002;6.034;2023-05-19T09:55:49;5.72;;;2.05;;
50647;SDS011;70221;52.002;6.034;2023-05-19T09:58:15;7.60;;;2.20;;
50647;SDS011;70221;52.002;6.034;2023-05-19T10:00:40;7.95;;;1.98;;
50647;SDS011;70221;52.002;6.034;2023-05-19T10:03:06;5.47;;;1.80;;
50647;SDS011;70221;52.002;6.034;2023-05-19T10:05:31;8.13;;;2.10;;
50647;SDS011;70221;52.002;6.034;2023-05-19T10:07:56;6.17;;;2.07;;
50647;SDS011;70221;52.002;6.034;2023-05-19T10:10:22;8.70;;;2.10;;
50647;SDS011;70221;52.002;6.034;2023-05-19T10:12:47;8.20;;;2.10;;
50647;SDS011;70221;52.002;6.034;2023-05-19T10:15:14;7.97;;;2.10;;
50647;SDS011;70221;52.002;6.034;2023-05-19T10:17:40;9.13;;;2.20;;
50647;SDS011;70221;52.002;6.034;2023-05-19T10:20:15;6.85;;;2.25;;
50647;SDS011;70221;52.002;6.034;2023-05-19T10:22:41;7.10;;;1.83;;
50647;SDS011;70221;52.002;6.034;2023-05-19T10:25:06;6.18;;;1.85;;
50647;SDS011;70221;52.002;6.034;2023-05-19T10:27:33;7.75;;;1.92;;
50647;SDS011;70221;52.002;6.034;2023-05-19T10:30:00;6.63;;;1.90;;
50647;SDS011;70221;52.002;6.034;2023-05-19T10:32:27;6.68;;;1.80;;
50647;SDS011;70221;52.002;6.034;2023-05-19T10:40:28;6.97;;;2.05;;
50647;SDS011;70221;52.002;6.034;2023-05-19T10:45:26;9.25;;;2.13;;
50647;SDS011;70221;52.002;6.034;2023-05-19T10:47:51;8.70;;;2.20;;
50647;SDS011;70221;52.002;6.034;2023-05-19T10:50:18;10.00;;;2.25;;
50647;SDS011;70221;52.002;6.034;2023-05-19T10:52:44;7.70;;;2.03;;
50647;SDS011;70221;52.002;6.034;2023-05-19T10:55:16;8.18;;;2.00;;
50647;SDS011;70221;52.002;6.034;2023-05-19T10:58:01;7.15;;;1.95;;
50647;SDS011;70221;52.002;6.034;2023-05-19T11:00:30;6.57;;;2.17;;
50647;SDS011;70221;52.002;6.034;2023-05-19T11:03:14;7.65;;;2.00;;
50647;SDS011;70221;52.002;6.034;2023-05-19T11:05:39;9.70;;;2.10;;
50647;SDS011;70221;52.002;6.034;2023-05-19T11:08:05;10.02;;;2.05;;
50647;SDS011;70221;52.002;6.034;2023-05-19T11:10:35;9.32;;;2.20;;
50647;SDS011;70221;52.002;6.034;2023-05-19T11:13:00;6.93;;;2.10;;
50647;SDS011;70221;52.002;6.034;2023-05-19T11:15:26;6.93;;;1.90;;
50647;SDS011;70221;52.002;6.034;2023-05-19T11:17:51;9.13;;;2.30;;
50647;SDS011;70221;52.002;6.034;2023-05-19T11:20:23;8.20;;;2.13;;
50647;SDS011;70221;52.002;6.034;2023-05-19T11:23:05;8.07;;;1.92;;
50647;SDS011;70221;52.002;6.034;2023-05-19T11:28:07;8.77;;;2.10;;
50647;SDS011;70221;52.002;6.034;2023-05-19T11:30:34;7.97;;;2.00;;
50647;SDS011;70221;52.002;6.034;2023-05-19T11:32:59;7.60;;;2.00;;
50647;SDS011;70221;52.002;6.034;2023-05-19T11:35:25;6.85;;;1.80;;
50647;SDS011;70221;52.002;6.034;2023-05-19T11:37:52;8.03;;;2.00;;
50647;SDS011;70221;52.002;6.034;2023-05-19T11:40:18;5.30;;;1.80;;
50647;SDS011;70221;52.002;6.034;2023-05-19T11:42:45;5.80;;;1.70;;
50647;SDS011;70221;52.002;6.034;2023-05-19T11:45:10;5.90;;;1.87;;
50647;SDS011;70221;52.002;6.034;2023-05-19T11:47:35;7.32;;;1.92;;
50647;SDS011;70221;52.002;6.034;2023-05-19T11:50:01;6.07;;;1.90;;
50647;SDS011;70221;52.002;6.034;2023-05-19T11:52:26;8.00;;;2.00;;
50647;SDS011;70221;52.002;6.034;2023-05-19T11:54:52;5.10;;;1.95;;
50647;SDS011;70221;52.002;6.034;2023-05-19T11:57:17;8.13;;;2.20;;
50647;SDS011;70221;52.002;6.034;2023-05-19T11:59:42;6.07;;;2.00;;
50647;SDS011;70221;52.002;6.034;2023-05-19T12:02:14;6.00;;;1.98;;
50647;SDS011;70221;52.002;6.034;2023-05-19T12:04:40;9.57;;;2.10;;
50647;SDS011;70221;52.002;6.034;2023-05-19T12:07:05;7.37;;;2.10;;
50647;SDS011;70221;52.002;6.034;2023-05-19T12:09:30;6.43;;;1.90;;
50647;SDS011;70221;52.002;6.034;2023-05-19T12:11:56;9.30;;;2.20;;
50647;SDS011;70221;52.002;6.034;2023-05-19T12:14:21;6.93;;;2.00;;
50647;SDS011;70221;52.002;6.034;2023-05-19T12:16:47;7.97;;;2.20;;
50647;SDS011;70221;52.002;6.034;2023-05-19T12:19:12;8.60;;;2.00;;
50647;SDS011;70221;52.002;6.034;2023-05-19T12:21:37;7.57;;;1.90;;
50647;SDS011;70221;52.002;6.034;2023-05-19T12:24:03;6.53;;;2.03;;
50647;SDS011;70221;52.002;6.034;2023-05-19T12:26:28;9.20;;;2.28;;
50647;SDS011;70221;52.002;6.034;2023-05-19T12:28:53;6.97;;;2.30;;
50647;SDS011;70221;52.002;6.034;2023-05-19T12:31:19;9.20;;;2.37;;
50647;SDS011;70221;52.002;6.034;2023-05-19T12:33:47;7.70;;;1.95;;
50647;SDS011;70221;52.002;6.034;2023-05-19T12:36:15;6.28;;;1.92;;
50647;SDS011;70221;52.002;6.034;2023-05-19T12:38:40;7.40;;;2.00;;
50647;SDS011;70221;52.002;6.034;2023-05-19T12:41:07;8.17;;;2.20;;
50647;SDS011;70221;52.002;6.034;2023-05-19T12:43:34;6.10;;;2.00;;
50647;SDS011;70221;52.002;6.034;2023-05-19T12:46:10;5.75;;;1.90;;
50647;SDS011;70221;52.002;6.034;2023-05-19T12:48:38;7.30;;;2.20;;
50647;SDS011;70221;52.002;6.034;2023-05-19T12:51:04;7.90;;;2.30;;
50647;SDS011;70221;52.002;6.034;2023-05-19T12:53:29;8.73;;;2.10;;
50647;SDS011;70221;52.002;6.034;2023-05-19T12:55:56;6.20;;;1.90;;
50647;SDS011;70221;52.002;6.034;2023-05-19T12:58:21;8.27;;;2.20;;
50647;SDS011;70221;52.002;6.034;2023-05-19T13:00:47;9.93;;;2.00;;
50647;SDS011;70221;52.002;6.034;2023-05-19T13:03:17;6.85;;;2.08;;
50647;SDS011;70221;52.002;6.034;2023-05-19T13:05:43;5.10;;;1.90;;
50647;SDS011;70221;52.002;6.034;2023-05-19T13:08:11;7.05;;;2.08;;
50647;SDS011;70221;52.002;6.034;2023-05-19T13:10:39;6.47;;;2.10;;
50647;SDS011;70221;52.002;6.034;2023-05-19T13:13:04;6.45;;;2.17;;
50647;SDS011;70221;52.002;6.034;2023-05-19T13:15:30;5.95;;;2.08;;
50647;SDS011;70221;52.002;6.034;2023-05-19T13:17:58;6.20;;;2.10;;
50647;SDS011;70221;52.002;6.034;2023-05-19T13:20:24;6.22;;;2.25;;
50647;SDS011;70221;52.002;6.034;2023-05-19T13:22:49;5.70;;;1.90;;
50647;SDS011;70221;52.002;6.034;2023-05-19T13:25:14;6.07;;;2.30;;
50647;SDS011;70221;52.002;6.034;2023-05-19T13:27:40;6.63;;;2.40;;
50647;SDS011;70221;52.002;6.034;2023-05-19T13:30:05;6.50;;;2.07;;
50647;SDS011;70221;52.002;6.034;2023-05-19T13:32:31;5.45;;;1.95;;
50647;SDS011;70221;52.002;6.034;2023-05-19T13:34:56;4.93;;;1.80;;
50647;SDS011;70221;52.002;6.034;2023-05-19T13:37:22;7.45;;;2.30;;
50647;SDS011;70221;52.002;6.034;2023-05-19T13:39:47;8.05;;;2.10;;
50647;SDS011;70221;52.002;6.034;2023-05-19T13:42:13;6.10;;;1.90;;
50647;SDS011;70221;52.002;6.034;2023-05-19T13:44:38;5.93;;;2.00;;
50647;SDS011;70221;52.002;6.034;2023-05-19T13:47:03;10.23;;;2.07;;
50647;SDS011;70221;52.002;6.034;2023-05-19T13:49:28;7.73;;;2.20;;
50647;SDS011;70221;52.002;6.034;2023-05-19T13:51:56;6.43;;;2.17;;
50647;SDS011;70221;52.002;6.034;2023-05-19T13:54:22;7.20;;;2.30;;
50647;SDS011;70221;52.002;6.034;2023-05-19T13:56:47;6.20;;;2.30;;
50647;SDS011;70221;52.002;6.034;2023-05-19T13:59:12;6.63;;;2.45;;
50647;SDS011;70221;52.002;6.034;2023-05-19T14:01:38;6.53;;;2.00;;
50647;SDS011;70221;52.002;6.034;2023-05-19T14:04:03;6.53;;;2.10;;
50647;SDS011;70221;52.002;6.034;2023-05-19T14:06:28;7.40;;;2.00;;
50647;SDS011;70221;52.002;6.034;2023-05-19T14:08:53;6.93;;;1.90;;
50647;SDS011;70221;52.002;6.034;2023-05-19T14:11:19;5.80;;;2.17;;
50647;SDS011;70221;52.002;6.034;2023-05-19T14:13:46;7.60;;;2.20;;
50647;SDS011;70221;52.002;6.034;2023-05-19T14:16:12;5.25;;;1.80;;
50647;SDS011;70221;52.002;6.034;2023-05-19T14:18:37;5.67;;;2.00;;
50647;SDS011;70221;52.002;6.034;2023-05-19T14:21:02;6.67;;;1.80;;
50647;SDS011;70221;52.002;6.034;2023-05-19T14:23:27;5.87;;;2.20;;
50647;SDS011;70221;52.002;6.034;2023-05-19T14:25:54;6.23;;;1.83;;
50647;SDS011;70221;52.002;6.034;2023-05-19T14:28:19;5.60;;;1.97;;
50647;SDS011;70221;52.002;6.034;2023-05-19T14:30:44;5.45;;;2.00;;
50647;SDS011;70221;52.002;6.034;2023-05-19T14:33:10;7.43;;;2.30;;
50647;SDS011;70221;52.002;6.034;2023-05-19T14:35:35;7.07;;;2.03;;
50647;SDS011;70221;52.002;6.034;2023-05-19T14:38:00;4.43;;;1.80;;
50647;SDS011;70221;52.002;6.034;2023-05-19T14:40:25;5.50;;;2.07;;
50647;SDS011;70221;52.002;6.034;2023-05-19T14:42:51;5.33;;;2.00;;
50647;SDS011;70221;52.002;6.034;2023-05-19T14:45:16;5.73;;;2.00;;
50647;SDS011;70221;52.002;6.034;2023-05-19T14:47:41;5.47;;;2.20;;
50647;SDS011;70221;52.002;6.034;2023-05-19T14:50:06;9.73;;;2.40;;
50647;SDS011;70221;52.002;6.034;2023-05-19T14:52:31;7.43;;;2.23;;
50647;SDS011;70221;52.002;6.034;2023-05-19T14:54:57;6.53;;;2.20;;
50647;SDS011;70221;52.002;6.034;2023-05-19T14:57:22;8.60;;;2.30;;
50647;SDS011;70221;52.002;6.034;2023-05-19T14:59:47;6.37;;;2.10;;
50647;SDS011;70221;52.002;6.034;2023-05-19T15:02:12;6.63;;;2.10;;
50647;SDS011;70221;52.002;6.034;2023-05-19T15:04:37;7.77;;;2.27;;
50647;SDS011;70221;52.002;6.034;2023-05-19T15:07:03;7.27;;;2.40;;
50647;SDS011;70221;52.002;6.034;2023-05-19T15:09:28;7.53;;;2.17;;